Billinghay, United Kingdom
Current Conditions -  °F | °C
As of 2:50 AM on Friday 28 Nov 2014 (Local Time) from EGXC Reporting Station
Haze Haze  
Wind Chill:   Ceiling: 2000
Heat Index:   Visibility: 1.3mi
Dew Point:   Wind: 7mph
Humidity: 100%   Direction: 80°E
Pressure: 29.62"   Gusts: NA
Location:  53.08°N, 0.28°W
Report Text: EGXC 280250Z 08006KT 2200 BR FEW007 BKN020 BKN200 09/09 Q1003 YLO2
Loading
Personal Weather Stations






























Interactive Weather Map New forecast layout! Learn more

10-Day Weather Forecast

Advertisements
Track Severe Weather on mobile